Track Клевцов Андрей

Time Latitude Longitude Accuracy (66% radius in meters) Altitude (meters) Speed (km/hour) Bearing (degrees) Battery (%) GPS flag
10:14:48 44.559023 38.197499 12 88.293937654053 0.010525435209274 168.63430786133 73 1 delete
10:14:39 44.559023 38.197499 8 88.183399345621 0 168.63430786133 73 1 delete
10:14:24 44.559019 38.197488 12 88.598252499507 0.25051715970039 168.63430786133 73 1 delete
10:14:12 44.559045 38.197472 12 86.883219884035 0.17578580975533 302.48651123047 73 1 delete
10:14:03 44.559049 38.197476 6 87.558101238423 0.28814691305161 59.324668884277 73 1 delete
10:13:51 44.559051 38.197500 8 88.510362219425 1.505490064621 192.75267028809 73 1 delete
10:13:45 44.559108 38.197508 6 88.901895668501 1.8649016618729 194.61557006836 73 1 delete
10:13:42 44.559158 38.197545 8 89.354901512002 1.9764630794525 209.47668457031 73 1 delete
10:13:39 44.559221 38.197588 6 90.061753449208 2.0563454627991 200.26300048828 73 1 delete
10:13:36 44.559285 38.197652 8 91.045480589386 2.0119118690491 196.17524719238 73 1 delete
10:13:33 44.559341 38.197685 8 92.026975961259 1.9716738462448 197.0641784668 73 1 delete
10:13:30 44.559409 38.197695 8 92.878656500468 1.9818985462189 188.48832702637 73 1 delete
10:13:27 44.559483 38.197706 8 93.702647969939 1.9778288602829 198.74156188965 73 1 delete
10:13:24 44.559541 38.197716 8 94.444531220907 2.0320816040039 193.04483032227 73 1 delete
10:13:18 44.559629 38.197760 8 95.814162339874 2.0683219432831 210.18193054199 73 1 delete
10:13:15 44.559683 38.197794 8 96.520621095609 1.9988216161728 194.2568359375 73 1 delete
10:13:12 44.559761 38.197841 8 97.398687932235 1.9816299676895 232.68368530273 73 1 delete
10:13:09 44.559806 38.197910 12 98.198613325625 2.0124933719635 197.23620605469 73 1 delete
10:13:06 44.559852 38.197967 8 99.059127013911 2.0122745037079 216.0306854248 73 1 delete
10:13:03 44.559906 38.198028 8 99.829263414099 2.1156303882599 242.26013183594 73 1 delete
10:13:00 44.559928 38.198078 12 100.75062955424 2.4305059909821 208.36752319336 73 1 delete
10:12:57 44.559987 38.198103 8 101.66636951878 1.0790416002274 200.60868835449 73 1 delete
10:12:51 44.560055 38.198094 8 103.51416068885 0.32676035165787 178.21170043945 73 1 delete
10:12:45 44.560068 38.198095 8 105.23655879342 1.2772617340088 176.61703491211 73 1 delete
10:12:42 44.560090 38.198092 12 106.0139384194 0 161.72967529297 73 1 delete
10:12:39 44.560123 38.198107 12 106.97633140616 2.3672277927399 263.0817565918 73 1 delete
10:12:33 44.560144 38.198234 8 108.7111218884 1.1939927339554 233.59802246094 73 1 delete
10:12:30 44.560166 38.198292 8 109.2615053203 0.58510899543762 217.76341247559 73 1 delete
10:12:24 44.560178 38.198322 12 110.32628383895 0.94189065694809 247.22645568848 73 1 delete
10:12:21 44.560191 38.198396 8 110.7341307094 0.84485453367233 248.89390563965 73 1 delete
10:12:18 44.560225 38.198446 6 111.19033425499 0.84266024827957 222.84585571289 73 1 delete
10:12:15 44.560234 38.198481 8 111.48305589272 0.87723869085312 186.56010437012 73 1 delete
10:12:12 44.560280 38.198497 8 111.73831709179 0.84007656574249 192.03741455078 73 1 delete
10:12:06 44.560304 38.198557 12 111.91056567278 0.81867551803589 310.20388793945 73 1 delete
10:12:00 44.560291 38.198587 8 112.89444984421 1.5082948207855 61.500709533691 73 1 delete
10:11:57 44.560290 38.198659 8 113.40176646947 1.5742117166519 261.09133911133 73 1 delete
10:11:54 44.560306 38.198746 8 113.81119109696 1.4821953773499 272.92468261719 73 1 delete
10:11:45 44.560383 38.198819 8 114.69508143064 0.78499513864517 192.97454833984 73 1 delete
10:11:42 44.560414 38.198816 8 114.92663979129 0.8996633887291 194.10740661621 73 1 delete
10:11:39 44.560456 38.198801 8 115.50336833792 0.98710155487061 176.63763427734 73 1 delete
10:11:36 44.560511 38.198791 12 116.15688824057 0.48200362920761 150.74980163574 73 1 delete
10:11:33 44.560522 38.198778 8 116.86301732777 0.95046979188919 208.89939880371 73 1 delete
10:11:30 44.560550 38.198823 8 117.30687801307 0.98651129007339 221.51010131836 73 1 delete
10:11:24 44.560592 38.198878 12 117.98663160738 1.2032344341278 255.02827453613 73 1 delete
10:11:21 44.560624 38.198930 12 118.61439864196 1.5690025091171 250.744140625 73 1 delete
10:11:15 44.560721 38.198923 8 119.80517423407 0.76002877950668 267.9836730957 73 1 delete
10:11:09 44.560776 38.198994 8 120.9270271603 1.3030397891998 218.4518737793 73 1 delete
10:11:06 44.560824 38.199036 8 121.29558817299 1.327657699585 236.71499633789 73 1 delete
10:11:03 44.560870 38.199090 8 121.55453805582 1.2807359695435 238.72001647949 73 1 delete
10:11:00 44.560908 38.199135 8 121.63656414792 1.0722343921661 235.82810974121 73 1 delete